Time;durP1;ratioP1;P1;durP2;ratioP2;P2;SDS_P1;SDS_P2;PMS_P1;PMS_P2;Temp;Humidity;BMP_temperature;BMP_pressure;BME280_temperature;BME280_humidity;BME280_pressure;Samples;Min_cycle;Max_cycle;Signal;HPM_P1;HPM_P2
2022/11/08 00:01:32;;;;;;;;;5.33;4.00;;;;;14.56;100.00;100614.97;5077450;28;45481;-74
2022/11/08 00:03:59;;;;;;;;;6.00;4.00;;;;;14.62;100.00;100617.56;5072951;28;45445;-74
2022/11/08 00:14:36;;;;;;;;;5.00;3.00;;;;;14.57;100.00;100598.13;5076854;28;45372;-74
2022/11/08 00:17:02;;;;;;;;;6.00;4.00;;;;;14.55;100.00;100596.38;5216486;22;59769;-73
2022/11/08 00:19:27;;;;;;;;;5.33;5.00;;;;;14.49;100.00;100586.69;5096505;27;46424;-74
2022/11/08 00:21:53;;;;;;;;;5.33;5.33;;;;;14.50;100.00;100574.28;5098252;27;66609;-73
2022/11/08 00:24:18;;;;;;;;;6.00;5.33;;;;;14.53;100.00;100580.44;5098178;27;66401;-73
2022/11/08 00:26:43;;;;;;;;;3.33;3.33;;;;;14.49;100.00;100564.53;5097915;27;63393;-73
2022/11/08 00:29:08;;;;;;;;;4.00;4.00;;;;;14.50;100.00;100555.69;5097415;27;53156;-73
2022/11/08 00:31:34;;;;;;;;;4.00;4.00;;;;;14.52;100.00;100560.09;5096756;27;71112;-73
2022/11/08 00:33:59;;;;;;;;;4.67;4.67;;;;;14.52;100.00;100562.75;5090105;27;45310;-73
2022/11/08 00:36:24;;;;;;;;;4.00;4.00;;;;;14.48;100.00;100547.72;5082978;27;62884;-73
2022/11/08 00:38:50;;;;;;;;;4.00;4.00;;;;;14.51;100.00;100547.69;5082051;27;66332;-73
2022/11/08 00:41:15;;;;;;;;;5.00;3.67;;;;;14.45;100.00;100531.78;5086770;27;66683;-73
2022/11/08 00:43:41;;;;;;;;;4.33;4.33;;;;;14.44;100.00;100522.06;5084405;27;59837;-73
2022/11/08 00:46:06;;;;;;;;;6.67;4.00;;;;;14.42;100.00;100516.75;5086191;27;45597;-73
2022/11/08 00:48:31;;;;;;;;;4.00;4.00;;;;;14.45;100.00;100510.53;5095653;27;47277;-73
2022/11/08 00:51:05;;;;;;;;;5.33;4.00;;;;;14.45;100.00;100512.31;5096794;27;68847;-73
2022/11/08 00:53:30;;;;;;;;;4.67;3.00;;;;;14.43;100.00;100504.34;5098805;27;45677;-73
2022/11/08 00:56:03;;;;;;;;;4.00;3.00;;;;;14.34;100.00;100497.38;5088521;27;45492;-73
2022/11/08 00:58:28;;;;;;;;;4.00;4.00;;;;;14.40;100.00;100507.06;5098267;27;46718;-73
2022/11/08 01:00:54;;;;;;;;;4.00;3.00;;;;;14.35;100.00;100500.91;5097609;27;64257;-73
2022/11/08 01:03:20;;;;;;;;;4.33;3.00;;;;;14.34;100.00;100491.19;5097504;27;45240;-73
2022/11/08 01:05:46;;;;;;;;;3.67;3.33;;;;;14.36;100.00;100497.34;5097860;27;45291;-74
2022/11/08 01:08:12;;;;;;;;;4.67;3.33;;;;;14.31;100.00;100491.19;5094490;27;47848;-73
2022/11/08 01:10:42;;;;;;;;;5.33;2.00;;;;;14.34;100.00;100493.84;5098109;27;45455;-73
2022/11/08 01:13:08;;;;;;;;;4.00;4.00;;;;;14.31;100.00;100500.03;5095321;27;45454;-73
2022/11/08 01:15:35;;;;;;;;;6.67;5.00;;;;;14.26;100.00;100491.22;5098655;27;46067;-73
2022/11/08 01:18:01;;;;;;;;;4.00;2.00;;;;;14.29;100.00;100499.19;5095700;27;46735;-73
2022/11/08 01:20:27;;;;;;;;;3.00;3.00;;;;;14.29;100.00;100487.69;5098055;27;45264;-73
2022/11/08 01:22:52;;;;;;;;;2.67;2.67;;;;;14.24;100.00;100484.19;5096875;27;66597;-73
2022/11/08 01:25:17;;;;;;;;;3.67;3.00;;;;;14.22;100.00;100481.56;5090434;27;63507;-73
2022/11/08 01:27:43;;;;;;;;;5.00;3.33;;;;;14.23;100.00;100485.09;5091202;27;72342;-73
2022/11/08 01:30:09;;;;;;;;;3.00;3.00;;;;;14.18;100.00;100474.50;5089585;27;57558;-73
2022/11/08 01:32:34;;;;;;;;;4.33;3.00;;;;;14.15;100.00;100470.09;5082593;27;45133;-73
2022/11/08 01:34:59;;;;;;;;;3.00;3.00;;;;;14.13;100.00;100474.53;5086957;27;60015;-73
2022/11/08 01:37:25;;;;;;;;;3.00;3.00;;;;;14.13;100.00;100471.91;5089458;27;67781;-73
2022/11/08 01:39:50;;;;;;;;;3.00;3.00;;;;;14.12;100.00;100482.53;5089986;27;61608;-73
2022/11/08 01:42:15;;;;;;;;;4.00;4.00;;;;;14.15;100.00;100479.84;5086558;27;62854;-73
2022/11/08 01:45:03;;;;;;;;;3.00;3.00;;;;;14.19;100.00;100475.38;5093735;27;45481;-73
2022/11/08 01:47:29;;;;;;;;;5.00;3.00;;;;;14.16;100.00;100471.84;5089105;27;46691;-73
2022/11/08 01:50:05;;;;;;;;;3.00;3.00;;;;;14.11;100.00;100457.75;5083476;27;66639;-73
2022/11/08 01:52:33;;;;;;;;;5.00;3.33;;;;;14.11;100.00;100464.81;5094260;27;45472;-74
2022/11/08 01:55:04;;;;;;;;;4.67;3.00;;;;;14.14;100.00;100452.41;5088779;27;45422;-73
2022/11/08 01:57:52;;;;;;;;;4.00;3.00;;;;;14.13;100.00;100457.75;5091368;27;46256;-73
2022/11/08 02:00:18;;;;;;;;;6.00;3.00;;;;;14.08;100.00;100443.63;5087640;27;45343;-73
2022/11/08 02:02:48;;;;;;;;;3.00;2.33;;;;;14.08;100.00;100440.97;5091820;27;45608;-73
2022/11/08 02:05:25;;;;;;;;;5.00;2.67;;;;;14.05;100.00;100433.03;5071904;27;45523;-73
2022/11/08 02:08:00;;;;;;;;;4.00;3.00;;;;;14.07;100.00;100437.44;5071231;27;47653;-73
2022/11/08 02:10:33;;;;;;;;;2.00;2.00;;;;;14.02;100.00;100428.63;5091927;27;45461;-73
2022/11/08 02:12:58;;;;;;;;;3.00;3.00;;;;;14.02;100.00;100420.69;5093431;27;45517;-73
2022/11/08 02:15:24;;;;;;;;;2.33;2.00;;;;;14.03;100.00;100416.25;5096014;27;59280;-73
2022/11/08 02:17:50;;;;;;;;;2.67;2.67;;;;;14.00;100.00;100422.44;5087363;27;47363;-73
2022/11/08 02:20:15;;;;;;;;;3.00;3.00;;;;;14.02;100.00;100423.34;5093198;27;45425;-73
2022/11/08 02:22:47;;;;;;;;;4.00;4.00;;;;;14.00;100.00;100406.53;5097709;27;45330;-73
2022/11/08 02:25:12;;;;;;;;;3.00;3.00;;;;;14.00;100.00;100400.34;5094900;27;45596;-73
2022/11/08 02:27:38;;;;;;;;;4.33;4.33;;;;;13.95;100.00;100379.13;5096424;27;47511;-73
2022/11/08 02:30:03;;;;;;;;;4.67;3.00;;;;;13.97;100.00;100382.69;5084943;27;69815;-74
2022/11/08 02:32:41;;;;;;;;;3.00;3.00;;;;;13.92;100.00;100357.09;5091652;27;45516;-73
2022/11/08 02:35:16;;;;;;;;;2.00;2.00;;;;;13.95;100.00;100367.66;5089255;27;45280;-73
2022/11/08 02:37:42;;;;;;;;;3.00;3.00;;;;;13.95;100.00;100362.34;5092748;27;47444;-73
2022/11/08 02:40:08;;;;;;;;;2.00;2.00;;;;;13.94;100.00;100361.47;5092897;27;45342;-74
2022/11/08 02:42:36;;;;;;;;;4.00;2.33;;;;;13.93;100.00;100380.94;5081185;27;45198;-73
2022/11/08 02:45:02;;;;;;;;;3.00;3.00;;;;;13.89;100.00;100373.91;5084054;27;45620;-74
2022/11/08 02:47:27;;;;;;;;;2.00;2.00;;;;;13.87;100.00;100365.97;5083173;27;46525;-73
2022/11/08 02:49:52;;;;;;;;;6.00;3.00;;;;;13.88;100.00;100362.41;5097462;27;45253;-73
2022/11/08 02:52:18;;;;;;;;;2.00;2.00;;;;;13.80;100.00;100353.66;5099646;27;58551;-73
2022/11/08 02:54:43;;;;;;;;;3.00;3.00;;;;;13.87;100.00;100360.66;5098474;27;45576;-74
2022/11/08 02:57:08;;;;;;;;;2.00;2.00;;;;;13.85;100.00;100359.81;5098012;27;70712;-73
2022/11/08 02:59:34;;;;;;;;;2.00;2.00;;;;;13.84;100.00;100358.00;5096153;27;68944;-74
2022/11/08 03:01:59;;;;;;;;;2.67;2.67;;;;;13.81;100.00;100355.41;5082050;27;63715;-73
2022/11/08 03:04:24;;;;;;;;;3.33;2.67;;;;;13.79;100.00;100349.22;5087011;27;62841;-73
2022/11/08 03:06:49;;;;;;;;;3.33;2.00;;;;;13.81;100.00;100359.84;5087420;27;66845;-73
2022/11/08 03:09:15;;;;;;;;;3.67;2.00;;;;;13.76;100.00;100364.31;5093588;27;64038;-73
2022/11/08 03:11:40;;;;;;;;;2.33;2.33;;;;;13.79;100.00;100373.09;5091358;27;45231;-73
2022/11/08 03:14:06;;;;;;;;;4.00;3.00;;;;;13.80;100.00;100379.31;5097340;27;56734;-73
2022/11/08 03:16:31;;;;;;;;;2.67;2.67;;;;;13.75;100.00;100360.78;5095751;27;46464;-73
2022/11/08 03:18:57;;;;;;;;;2.00;2.00;;;;;13.75;100.00;100370.53;5081136;27;45718;-74
2022/11/08 03:21:22;;;;;;;;;2.00;2.00;;;;;13.78;100.00;100376.66;5092103;27;45407;-73
2022/11/08 03:23:47;;;;;;;;;5.33;2.00;;;;;13.76;100.00;100366.97;5092988;27;52613;-73
2022/11/08 03:26:13;;;;;;;;;4.00;2.33;;;;;13.76;100.00;100370.50;5098304;27;63576;-73
2022/11/08 03:28:38;;;;;;;;;1.67;1.67;;;;;13.75;100.00;100362.56;5097648;27;63425;-73
2022/11/08 03:31:04;;;;;;;;;3.67;2.67;;;;;13.73;100.00;100359.91;5098057;27;45613;-73
2022/11/08 03:33:29;;;;;;;;;1.67;1.67;;;;;13.66;100.00;100336.97;5094707;27;45486;-73
2022/11/08 03:35:54;;;;;;;;;2.33;2.33;;;;;13.70;100.00;100359.06;5098233;27;67793;-73
2022/11/08 03:38:20;;;;;;;;;3.00;3.00;;;;;13.70;100.00;100353.75;5096572;27;46218;-73
2022/11/08 03:40:46;;;;;;;;;1.33;1.33;;;;;13.70;100.00;100348.44;5099290;27;45320;-73
2022/11/08 03:43:11;;;;;;;;;6.00;1.67;;;;;13.70;100.00;100351.09;5094539;27;45224;-73
2022/11/08 03:45:37;;;;;;;;;2.33;2.33;;;;;13.69;100.00;100350.22;5090607;27;46131;-73
2022/11/08 03:48:02;;;;;;;;;3.33;2.00;;;;;13.65;100.00;100340.53;5091161;27;65261;-74
2022/11/08 03:50:28;;;;;;;;;4.00;2.00;;;;;13.65;100.00;100343.19;5089604;27;45386;-73
2022/11/08 03:52:54;;;;;;;;;1.67;1.67;;;;;13.70;100.00;100356.41;5094432;27;53020;-73
2022/11/08 03:55:21;;;;;;;;;2.33;2.00;;;;;13.68;100.00;100350.22;5098153;27;46979;-73
2022/11/08 03:57:48;;;;;;;;;5.00;2.00;;;;;13.68;100.00;100336.97;5094976;27;45462;-73
2022/11/08 04:00:16;;;;;;;;;4.00;1.00;;;;;13.72;100.00;100351.97;5099194;27;45480;-73
2022/11/08 04:02:41;;;;;;;;;2.00;2.00;;;;;13.72;100.00;100351.97;5098447;27;45215;-74
2022/11/08 04:05:08;;;;;;;;;2.00;2.00;;;;;13.71;100.00;100352.84;5094190;27;65054;-73
2022/11/08 04:07:34;;;;;;;;;1.00;1.00;;;;;13.71;100.00;100336.94;5098327;27;45382;-73
2022/11/08 04:09:59;;;;;;;;;2.67;2.33;;;;;13.76;100.00;100340.44;5098495;27;45355;-73
2022/11/08 04:15:15;;;;;;;;;2.00;2.00;;;;;13.77;100.00;100344.84;5088200;27;45823;-73
2022/11/08 04:23:23;;;;;;;;;1.00;1.00;;;;;13.80;100.00;100353.66;5093529;27;45402;-73
2022/11/08 04:25:54;;;;;;;;;2.00;2.00;;;;;13.83;100.00;100347.44;5078699;27;46171;-74
2022/11/08 04:28:22;;;;;;;;;2.33;1.00;;;;;13.84;100.00;100352.72;5093790;27;45213;-74
2022/11/08 04:30:54;;;;;;;;;3.67;1.33;;;;;13.84;100.00;100343.88;5092289;27;45554;-73
2022/11/08 04:33:20;;;;;;;;;0.67;0.67;;;;;13.84;100.00;100349.19;5096765;27;45399;-73
2022/11/08 04:35:46;;;;;;;;;1.00;1.00;;;;;13.88;100.00;100357.09;5097861;27;47232;-73
2022/11/08 04:38:11;;;;;;;;;1.00;1.00;;;;;13.84;100.00;100343.88;5094183;27;45277;-73
2022/11/08 04:40:37;;;;;;;;;2.00;2.00;;;;;13.85;100.00;100341.22;5091180;27;63319;-73
2022/11/08 04:43:02;;;;;;;;;3.00;2.00;;;;;13.85;100.00;100349.19;5095410;27;64478;-73
2022/11/08 04:45:27;;;;;;;;;1.67;1.67;;;;;13.84;100.00;100343.88;5097501;27;47253;-73
2022/11/08 04:47:53;;;;;;;;;1.00;1.00;;;;;13.91;100.00;100353.56;5097596;27;68274;-73
2022/11/08 04:50:18;;;;;;;;;3.00;2.00;;;;;13.86;100.00;100336.78;5097854;27;65618;-73
2022/11/08 04:52:50;;;;;;;;;2.00;2.00;;;;;13.87;100.00;100334.13;5097340;27;61387;-73
2022/11/08 04:55:15;;;;;;;;;2.00;2.00;;;;;13.92;100.00;100351.78;5098760;27;46586;-73
2022/11/08 04:57:41;;;;;;;;;4.00;2.00;;;;;13.92;100.00;100347.34;5085201;27;65763;-73
2022/11/08 05:00:06;;;;;;;;;1.00;1.00;;;;;13.89;100.00;100327.00;5091850;27;58090;-73
2022/11/08 05:02:32;;;;;;;;;2.00;2.00;;;;;13.88;100.00;100330.56;5098453;27;45477;-73
2022/11/08 05:04:57;;;;;;;;;2.00;2.00;;;;;13.92;100.00;100328.75;5098275;27;47238;-73
2022/11/08 05:07:22;;;;;;;;;3.00;2.00;;;;;13.88;100.00;100314.63;5088219;27;62119;-73
2022/11/08 05:09:48;;;;;;;;;2.00;2.00;;;;;13.92;100.00;100302.22;5089267;27;53470;-73
2022/11/08 05:12:13;;;;;;;;;2.67;2.67;;;;;13.93;100.00;100321.69;5093810;27;45262;-73
2022/11/08 05:14:38;;;;;;;;;1.00;1.00;;;;;13.89;100.00;100340.28;5090200;27;47001;-73
2022/11/08 05:17:04;;;;;;;;;5.00;3.00;;;;;13.89;100.00;100331.44;5096921;27;67951;-73
2022/11/08 05:24:57;;;;;;;;;1.00;1.00;;;;;13.90;100.00;100333.19;5097170;27;45876;-73
2022/11/08 05:27:22;;;;;;;;;2.33;2.00;;;;;13.93;100.00;100337.59;5093039;27;63128;-73
2022/11/08 05:29:47;;;;;;;;;2.33;2.00;;;;;13.96;100.00;100332.28;5087847;27;45449;-73
2022/11/08 05:32:12;;;;;;;;;3.00;2.00;;;;;13.92;100.00;100344.69;5086370;27;57231;-72
2022/11/08 05:34:38;;;;;;;;;2.67;2.00;;;;;13.96;100.00;100357.03;5092924;27;66772;-73
2022/11/08 05:37:03;;;;;;;;;1.00;1.00;;;;;13.95;100.00;100357.91;5088495;27;65712;-73
2022/11/08 05:39:28;;;;;;;;;1.67;1.67;;;;;13.92;100.00;100343.81;5095744;27;46071;-73
2022/11/08 05:41:54;;;;;;;;;5.00;1.67;;;;;13.88;100.00;100338.53;5090651;27;58474;-74
2022/11/08 05:44:19;;;;;;;;;3.33;3.00;;;;;13.93;100.00;100348.22;5086905;27;72013;-71
2022/11/08 05:46:44;;;;;;;;;3.00;1.00;;;;;13.93;100.00;100353.53;5093080;27;70089;-72
2022/11/08 05:49:10;;;;;;;;;1.00;1.00;;;;;13.91;100.00;100340.28;5088982;27;60153;-72
2022/11/08 05:51:35;;;;;;;;;2.00;2.00;;;;;13.91;100.00;100334.09;5092260;27;61281;-72
2022/11/08 05:54:00;;;;;;;;;4.00;1.00;;;;;13.85;100.00;100335.03;5083188;27;65269;-73
2022/11/08 05:56:26;;;;;;;;;2.00;1.33;;;;;13.86;100.00;100323.53;5084621;27;45422;-74
2022/11/08 05:58:51;;;;;;;;;1.67;1.33;;;;;13.87;100.00;100327.94;5095735;27;60120;-74
2022/11/08 06:01:18;;;;;;;;;2.00;2.00;;;;;13.90;100.00;100338.50;5091643;27;57706;-75
2022/11/08 06:03:44;;;;;;;;;2.33;2.00;;;;;13.85;100.00;100335.91;5094013;27;47611;-73
2022/11/08 06:06:14;;;;;;;;;2.33;1.33;;;;;13.87;100.00;100336.75;5093565;27;45485;-76
2022/11/08 06:08:40;;;;;;;;;2.00;2.00;;;;;13.83;100.00;100324.41;5081506;27;45686;-74
2022/11/08 06:11:11;;;;;;;;;4.00;3.00;;;;;13.84;100.00;100330.59;5086840;27;45542;-73
2022/11/08 06:13:36;;;;;;;;;1.00;1.00;;;;;13.88;100.00;100330.56;5093000;27;47832;-73
2022/11/08 06:16:03;;;;;;;;;2.00;1.00;;;;;13.88;100.00;100340.28;5095381;27;45529;-71
2022/11/08 06:18:30;;;;;;;;;1.00;1.00;;;;;13.89;100.00;100336.75;5091314;27;45525;-73
2022/11/08 06:20:57;;;;;;;;;1.67;1.00;;;;;13.88;100.00;100340.28;5089641;27;45619;-73
2022/11/08 06:23:22;;;;;;;;;2.67;2.00;;;;;13.91;100.00;100342.94;5082176;27;47658;-73
2022/11/08 06:25:48;;;;;;;;;1.00;1.00;;;;;13.93;100.00;100340.25;5089401;27;66030;-73
2022/11/08 06:28:13;;;;;;;;;1.33;1.33;;;;;13.88;100.00;100321.72;5088363;27;45516;-73
2022/11/08 06:30:39;;;;;;;;;2.00;2.00;;;;;13.89;100.00;100320.81;5085237;27;45580;-72
2022/11/08 06:33:04;;;;;;;;;0.33;0.33;;;;;13.94;100.00;100320.78;5078832;27;46206;-73
2022/11/08 06:35:30;;;;;;;;;1.00;1.00;;;;;13.98;100.00;100327.81;5079257;27;62815;-73
2022/11/08 06:37:55;;;;;;;;;1.67;1.67;;;;;13.99;100.00;100334.88;5084091;27;59918;-73
2022/11/08 06:40:20;;;;;;;;;2.00;2.00;;;;;13.97;100.00;100345.53;5079994;27;50995;-73
2022/11/08 06:42:45;;;;;;;;;2.67;1.00;;;;;13.94;100.00;100349.97;5082168;27;71882;-73
2022/11/08 06:45:11;;;;;;;;;2.33;2.33;;;;;13.96;100.00;100362.34;5077798;27;55792;-73
2022/11/08 06:47:36;;;;;;;;;3.00;2.00;;;;;13.91;100.00;100382.75;5081005;27;60175;-73
2022/11/08 06:50:02;;;;;;;;;1.67;1.67;;;;;13.90;100.00;100362.38;5078880;27;55728;-74
2022/11/08 06:52:27;;;;;;;;;2.00;1.00;;;;;13.92;100.00;100367.69;5084970;27;47029;-75
2022/11/08 06:54:52;;;;;;;;;3.00;2.00;;;;;13.92;100.00;100363.25;5089940;27;45709;-74
2022/11/08 06:57:18;;;;;;;;;1.67;1.00;;;;;13.91;100.00;100356.19;5090783;27;45434;-73
2022/11/08 06:59:43;;;;;;;;;2.00;2.00;;;;;13.85;100.00;100367.75;5093415;27;63066;-74
2022/11/08 07:02:09;;;;;;;;;2.00;2.00;;;;;13.92;100.00;100368.56;5093495;27;63261;-74
2022/11/08 07:04:35;;;;;;;;;2.00;0.33;;;;;13.87;100.00;100365.97;5091041;27;45623;-74
2022/11/08 07:07:00;;;;;;;;;3.00;2.00;;;;;13.92;100.00;100373.88;5080279;27;45292;-73
2022/11/08 07:09:25;;;;;;;;;3.00;3.00;;;;;13.93;100.00;100380.06;5078705;27;56061;-73
2022/11/08 07:11:51;;;;;;;;;2.00;2.00;;;;;13.89;100.00;100368.59;5085625;27;73593;-73
2022/11/08 07:14:16;;;;;;;;;2.00;2.00;;;;;13.96;100.00;100383.59;5086710;27;46019;-74
2022/11/08 07:16:41;;;;;;;;;1.00;1.00;;;;;13.94;100.00;100369.41;5085206;27;46384;-73
2022/11/08 07:19:07;;;;;;;;;1.00;1.00;;;;;13.93;100.00;100382.72;5085728;27;45399;-73
2022/11/08 07:21:32;;;;;;;;;1.67;1.67;;;;;13.98;100.00;100392.41;5095664;27;47208;-73
2022/11/08 07:23:57;;;;;;;;;2.00;2.00;;;;;13.94;100.00;100381.81;5094864;27;54608;-74
2022/11/08 07:26:23;;;;;;;;;4.67;2.33;;;;;14.01;100.00;100389.72;5090993;27;60727;-73
2022/11/08 07:28:48;;;;;;;;;2.00;2.00;;;;;13.98;100.00;100387.09;5091564;27;58588;-72
2022/11/08 07:31:13;;;;;;;;;1.67;1.00;;;;;14.02;100.00;100378.19;5086342;27;70158;-73
2022/11/08 07:33:39;;;;;;;;;1.33;1.33;;;;;14.08;100.00;100390.53;5087472;27;45253;-72
2022/11/08 07:36:04;;;;;;;;;6.00;3.00;;;;;14.12;100.00;100405.53;5084024;27;45512;-73
2022/11/08 07:38:30;;;;;;;;;3.33;1.67;;;;;14.20;100.00;100400.13;5090571;27;45356;-72
2022/11/08 07:40:59;;;;;;;;;2.00;2.00;;;;;14.24;100.00;100394.78;5083582;27;46780;-73
2022/11/08 07:43:25;;;;;;;;;2.67;1.00;;;;;14.29;100.00;100394.72;5092128;27;45543;-73
2022/11/08 07:45:58;;;;;;;;;1.67;1.67;;;;;14.34;100.00;100393.78;5090670;27;45458;-72
2022/11/08 07:48:25;;;;;;;;;3.00;1.00;;;;;14.38;100.00;100402.56;5089304;27;45579;-72
2022/11/08 07:50:50;;;;;;;;;1.00;1.00;;;;;14.42;100.00;100402.53;5102226;27;47540;-72
2022/11/08 07:53:16;;;;;;;;;3.00;2.00;;;;;14.41;100.00;100383.97;5076529;27;46045;-73
2022/11/08 07:55:41;;;;;;;;;2.00;2.00;;;;;14.49;100.00;100389.19;5090664;27;45607;-72
2022/11/08 07:58:09;;;;;;;;;2.00;2.00;;;;;14.53;100.00;100394.47;5095411;27;63085;-72
2022/11/08 08:00:36;;;;;;;;;2.67;2.67;;;;;14.57;100.00;100379.38;5098816;27;46678;-73
2022/11/08 08:03:02;;;;;;;;;2.33;2.00;;;;;14.55;100.00;100382.06;5098966;27;45477;-73
2022/11/08 08:05:29;;;;;;;;;3.00;1.00;;;;;14.61;100.00;100384.63;5098980;27;45501;-73
2022/11/08 08:07:58;;;;;;;;;2.00;1.00;;;;;14.66;100.00;100372.16;5082610;27;46631;-73
2022/11/08 08:10:24;;;;;;;;;3.67;2.67;;;;;14.71;100.00;100363.25;5098330;27;47398;-73
2022/11/08 08:12:49;;;;;;;;;2.00;2.00;;;;;14.76;100.00;100366.75;5098662;27;45432;-73
2022/11/08 08:15:14;;;;;;;;;2.00;2.00;;;;;14.78;100.00;100343.66;5098355;27;45745;-73
2022/11/08 08:17:40;;;;;;;;;3.00;3.00;;;;;14.85;100.00;100346.19;5098265;27;54709;-73
2022/11/08 08:20:06;;;;;;;;;4.00;2.00;;;;;14.89;100.00;100353.25;5098357;27;50933;-73
2022/11/08 08:22:31;;;;;;;;;3.00;1.33;;;;;14.94;100.00;100351.41;5098012;27;45269;-73
2022/11/08 08:24:57;;;;;;;;;4.67;2.33;;;;;14.94;100.00;100337.22;5084024;27;60992;-73
2022/11/08 08:27:22;;;;;;;;;2.67;2.67;;;;;15.00;100.00;100362.84;5096804;27;61089;-74
2022/11/08 08:29:47;;;;;;;;;1.67;1.67;;;;;15.10;100.00;100369.78;5096444;27;66187;-72
2022/11/08 08:32:13;;;;;;;;;1.00;1.00;;;;;15.09;100.00;100363.59;5098703;27;45168;-73
2022/11/08 08:34:38;;;;;;;;;2.00;2.00;;;;;15.16;100.00;100382.97;5097912;27;45310;-73
2022/11/08 08:37:04;;;;;;;;;3.00;1.00;;;;;15.26;100.00;100392.59;5088143;27;58519;-73
2022/11/08 08:39:29;;;;;;;;;1.00;1.00;;;;;15.33;100.00;100393.38;5093006;27;67296;-73
2022/11/08 08:41:54;;;;;;;;;2.00;2.00;;;;;15.36;100.00;100388.88;5090153;27;45325;-73
2022/11/08 08:44:20;;;;;;;;;4.00;1.00;;;;;15.45;100.00;100406.50;5088960;27;64795;-73
2022/11/08 08:46:45;;;;;;;;;4.00;1.33;;;;;15.54;100.00;100403.66;5089372;27;54921;-73
2022/11/08 08:49:10;;;;;;;;;2.00;2.00;;;;;15.61;100.00;100401.81;5085117;27;51317;-73
2022/11/08 08:51:36;;;;;;;;;3.00;2.00;;;;;15.66;100.00;100389.34;5091292;27;45258;-73
2022/11/08 08:54:01;;;;;;;;;2.00;2.00;;;;;15.73;100.00;100387.44;5093609;27;61287;-73
2022/11/08 08:56:26;;;;;;;;;3.00;1.00;;;;;15.79;100.00;100382.00;5089242;27;61661;-73
2022/11/08 08:58:52;;;;;;;;;2.67;1.00;;;;;15.92;100.00;100381.75;5097665;27;46271;-72
2022/11/08 09:01:17;;;;;;;;;5.00;1.33;;;;;16.00;100.00;100386.06;5096920;27;67110;-73
2022/11/08 09:03:43;;;;;;;;;1.00;1.00;;;;;16.03;100.00;100373.56;5097877;27;45402;-73
2022/11/08 09:06:08;;;;;;;;;2.00;2.00;;;;;16.13;100.00;100384.91;5093873;27;45497;-73
2022/11/08 09:08:33;;;;;;;;;2.67;1.00;;;;;16.21;100.00;100394.53;5087719;27;45773;-73
2022/11/08 09:10:59;;;;;;;;;2.33;2.00;;;;;16.26;100.00;100390.91;5096686;27;66238;-73
2022/11/08 09:13:26;;;;;;;;;5.00;2.00;;;;;16.28;100.00;100383.75;5097497;27;45457;-73
2022/11/08 09:15:53;;;;;;;;;2.00;0.00;;;;;16.35;100.00;100390.69;5092925;27;45337;-73
2022/11/08 09:18:18;;;;;;;;;4.00;2.00;;;;;16.34;100.00;100386.28;5094854;27;46643;-74
2022/11/08 09:20:44;;;;;;;;;2.00;2.00;;;;;16.38;100.00;100383.53;5097916;27;45504;-73
2022/11/08 09:23:10;;;;;;;;;1.00;1.00;;;;;16.38;100.00;100394.19;5097265;27;45260;-73
2022/11/08 09:25:36;;;;;;;;;2.67;1.00;;;;;16.38;100.00;100401.31;5093165;27;45315;-73
2022/11/08 09:28:01;;;;;;;;;1.00;1.00;;;;;16.39;100.00;100414.59;5095548;27;54176;-73
2022/11/08 09:30:26;;;;;;;;;1.00;1.00;;;;;16.38;100.00;100417.31;5092674;27;64533;-73
2022/11/08 09:32:52;;;;;;;;;1.67;1.67;;;;;16.42;100.00;100416.34;5079519;27;45606;-73
2022/11/08 09:35:17;;;;;;;;;2.00;2.00;;;;;16.42;100.00;100405.69;5095452;27;45612;-73
2022/11/08 09:37:43;;;;;;;;;2.00;2.00;;;;;16.50;100.00;100415.25;5092064;27;46503;-73
2022/11/08 09:40:17;;;;;;;;;1.33;1.00;;;;;16.54;100.00;100413.44;5095069;27;61766;-73
2022/11/08 09:43:11;;;;;;;;;1.00;1.00;;;;;16.55;100.00;100387.66;5085450;27;45576;-73
2022/11/08 09:45:45;;;;;;;;;2.00;2.00;;;;;16.58;100.00;100377.81;5085715;27;45491;-73
2022/11/08 09:48:31;;;;;;;;;1.33;1.33;;;;;16.69;100.00;100393.56;5077994;27;47101;-73
2022/11/08 09:50:58;;;;;;;;;4.33;1.67;;;;;16.68;100.00;100387.38;5074814;27;45558;-73
2022/11/08 09:53:48;;;;;;;;;3.00;1.67;;;;;16.75;100.00;100398.81;5090741;27;45401;-73
2022/11/08 09:56:20;;;;;;;;;3.67;2.00;;;;;16.79;100.00;100392.50;5067865;28;45390;-74
2022/11/08 09:59:02;;;;;;;;;3.00;1.00;;;;;16.85;100.00;100384.38;5095901;27;46586;-74
2022/11/08 10:01:30;;;;;;;;;2.67;2.67;;;;;16.89;100.00;100403.84;5078685;27;45432;-73
2022/11/08 10:03:58;;;;;;;;;3.33;1.00;;;;;16.92;100.00;100393.09;5096615;27;45672;-73
2022/11/08 10:06:38;;;;;;;;;4.33;1.67;;;;;16.95;100.00;100385.06;5084940;27;45544;-74
2022/11/08 10:09:42;;;;;;;;;2.00;1.00;;;;;17.03;100.00;100383.06;5077992;27;47629;-73
2022/11/08 10:12:35;;;;;;;;;1.00;1.00;;;;;17.09;100.00;100398.94;5097030;27;45362;-73
2022/11/08 10:15:10;;;;;;;;;4.67;1.67;;;;;17.09;100.00;100390.94;5095840;27;45472;-73
2022/11/08 10:18:24;;;;;;;;;3.33;1.67;;;;;17.08;100.00;100391.84;5079720;27;45448;-72
2022/11/08 10:21:10;;;;;;;;;3.00;1.00;;;;;17.06;100.00;100390.16;5078729;27;47414;-72
2022/11/08 10:23:50;;;;;;;;;1.00;1.00;;;;;17.09;100.00;100398.94;5077417;27;45313;-73
2022/11/08 10:26:18;;;;;;;;;2.00;1.33;;;;;17.20;100.00;100396.03;5096505;27;45150;-73
2022/11/08 10:28:55;;;;;;;;;1.33;1.00;;;;;17.28;100.00;100394.06;5097162;27;45446;-73
2022/11/08 10:31:20;;;;;;;;;2.00;2.00;;;;;17.36;100.00;100386.75;5095644;27;47320;-73
2022/11/08 10:33:47;;;;;;;;;2.00;2.00;;;;;17.43;100.00;100390.16;5094688;27;65717;-72
2022/11/08 10:36:19;;;;;;;;;2.00;2.00;;;;;17.49;100.00;100376.66;5076028;27;45292;-72
2022/11/08 10:38:57;;;;;;;;;3.33;1.00;;;;;17.57;100.00;100390.69;5068901;28;45448;-73
2022/11/08 10:41:37;;;;;;;;;3.00;2.00;;;;;17.60;100.00;100373.72;5090492;27;46460;-72
2022/11/08 10:44:16;;;;;;;;;3.00;1.67;;;;;17.70;100.00;100377.91;5067074;28;45166;-72
2022/11/08 10:46:57;;;;;;;;;2.00;2.00;;;;;17.73;100.00;100369.84;5088169;27;45409;-73
2022/11/08 10:49:32;;;;;;;;;1.00;1.00;;;;;17.80;100.00;100375.00;5073954;27;45485;-72
2022/11/08 10:51:59;;;;;;;;;2.00;2.00;;;;;17.79;100.00;100375.94;5092224;27;47640;-72
2022/11/08 10:54:53;;;;;;;;;3.00;2.00;;;;;17.86;100.00;100367.75;5093820;27;45429;-72
2022/11/08 10:57:25;;;;;;;;;3.00;1.00;;;;;17.91;100.00;100373.84;5078448;27;45470;-73
2022/11/08 10:59:51;;;;;;;;;2.67;2.00;;;;;17.93;100.00;100372.88;5093294;27;46134;-72
2022/11/08 11:02:19;;;;;;;;;3.00;2.00;;;;;17.99;100.00;100367.38;5095665;27;45231;-73
2022/11/08 11:04:45;;;;;;;;;3.67;2.00;;;;;18.02;100.00;100369.09;5087978;27;45479;-73
2022/11/08 11:07:27;;;;;;;;;1.33;1.33;;;;;18.11;100.00;100358.16;5076534;27;45445;-73
2022/11/08 11:09:52;;;;;;;;;2.00;2.00;;;;;18.19;100.00;100356.13;5097167;27;45215;-72
2022/11/08 11:12:18;;;;;;;;;3.00;1.67;;;;;18.20;100.00;100347.19;5098928;27;46340;-74
2022/11/08 11:14:43;;;;;;;;;2.00;2.00;;;;;18.25;100.00;100347.06;5095701;27;54339;-72
2022/11/08 11:17:16;;;;;;;;;3.00;1.00;;;;;18.32;100.00;100356.66;5095611;27;61951;-72
2022/11/08 11:19:52;;;;;;;;;2.67;1.00;;;;;18.35;100.00;100361.94;5095895;27;45513;-72
2022/11/08 11:22:32;;;;;;;;;1.00;1.00;;;;;18.36;100.00;100368.16;5072539;28;47662;-73
2022/11/08 11:25:05;;;;;;;;;1.67;1.33;;;;;18.31;100.00;100337.06;5092761;27;45535;-73
2022/11/08 11:27:36;;;;;;;;;5.00;1.33;;;;;18.35;100.00;100363.72;5079529;27;45539;-73
2022/11/08 11:30:23;;;;;;;;;1.67;1.33;;;;;18.37;100.00;100356.53;5098445;27;45500;-73
2022/11/08 11:32:58;;;;;;;;;2.33;2.33;;;;;18.37;100.00;100360.06;5098441;27;46631;-73
2022/11/08 11:35:24;;;;;;;;;5.00;3.00;;;;;18.37;100.00;100351.19;5097286;27;45218;-72
2022/11/08 11:37:51;;;;;;;;;2.00;2.00;;;;;18.33;100.00;100345.06;5075676;27;45406;-74
2022/11/08 11:40:37;;;;;;;;;3.00;3.00;;;;;18.36;100.00;100369.03;5086177;27;61405;-74
2022/11/08 11:43:19;;;;;;;;;3.00;2.00;;;;;18.34;100.00;100373.53;5097761;27;46787;-72